createdAt,value
2019-03-08T00:04:13.571Z,1.93
2019-03-08T00:09:15.389Z,1.80
2019-03-08T00:14:17.199Z,2.20
2019-03-08T00:19:19.620Z,2.20
2019-03-08T00:24:21.792Z,2.07
2019-03-08T00:29:24.586Z,2.70
2019-03-08T00:34:26.819Z,2.80
2019-03-08T00:39:29.020Z,3.93
2019-03-08T00:44:31.101Z,3.90
2019-03-08T00:49:33.151Z,4.60
2019-03-08T00:54:35.273Z,3.90
2019-03-08T00:59:37.888Z,3.93
2019-03-08T01:04:39.995Z,3.30
2019-03-08T01:09:42.079Z,3.30
2019-03-08T01:14:44.235Z,2.83
2019-03-08T01:19:45.782Z,2.80
2019-03-08T01:24:47.572Z,3.00
2019-03-08T01:29:49.228Z,3.03
2019-03-08T01:34:50.916Z,2.33
2019-03-08T01:39:52.559Z,1.93
2019-03-08T01:44:54.148Z,1.67
2019-03-08T01:49:55.703Z,1.80
2019-03-08T01:54:57.459Z,1.80
2019-03-08T01:59:59.021Z,2.00
2019-03-08T02:05:00.577Z,1.50
2019-03-08T02:10:06.892Z,1.37
2019-03-08T02:15:13.051Z,1.60
2019-03-08T02:20:18.761Z,1.30
2019-03-08T02:25:20.311Z,1.50
2019-03-08T02:30:22.459Z,1.53
2019-03-08T02:35:24.216Z,1.27
2019-03-08T02:40:35.791Z,1.20
2019-03-08T02:45:37.439Z,1.07
2019-03-08T02:50:40.343Z,1.47
2019-03-08T02:55:41.910Z,0.90
2019-03-08T03:00:44.263Z,1.50
2019-03-08T03:05:46.919Z,1.70
2019-03-08T03:10:48.459Z,1.43
2019-03-08T03:15:50.008Z,1.90
2019-03-08T03:20:52.004Z,2.07
2019-03-08T03:25:53.556Z,1.67
2019-03-08T03:30:55.237Z,1.83
2019-03-08T03:35:56.783Z,1.93
2019-03-08T03:40:58.701Z,1.80
2019-03-08T03:46:00.351Z,1.83
2019-03-08T03:51:02.053Z,1.70
2019-03-08T03:56:03.708Z,1.70
2019-03-08T04:01:09.840Z,1.80
2019-03-08T04:06:11.408Z,1.90
2019-03-08T04:11:13.171Z,2.13
2019-03-08T04:16:14.741Z,2.20
2019-03-08T04:21:16.300Z,1.93
2019-03-08T04:26:17.857Z,2.30
2019-03-08T04:31:19.464Z,2.00
2019-03-08T04:36:21.312Z,2.30
2019-03-08T04:41:22.991Z,2.40
2019-03-08T04:46:24.539Z,2.47
2019-03-08T04:51:26.094Z,2.50
2019-03-08T04:56:27.817Z,2.70
2019-03-08T05:01:29.783Z,2.60
2019-03-08T05:06:31.352Z,3.03
2019-03-08T05:11:32.973Z,3.70
2019-03-08T05:16:34.543Z,3.73
2019-03-08T05:21:36.079Z,3.30
2019-03-08T05:26:37.939Z,3.13
2019-03-08T05:31:39.492Z,2.93
2019-03-08T05:36:41.045Z,3.53
2019-03-08T05:41:42.720Z,3.63
2019-03-08T05:46:44.267Z,3.43
2019-03-08T05:51:45.820Z,3.67
2019-03-08T05:56:47.496Z,2.90
2019-03-08T06:01:49.298Z,3.10
2019-03-08T06:06:50.937Z,3.30
2019-03-08T06:11:52.792Z,2.97
2019-03-08T06:16:54.508Z,3.40
2019-03-08T06:21:56.086Z,3.23
2019-03-08T06:26:57.797Z,3.10
2019-03-08T06:31:59.597Z,3.23
2019-03-08T06:37:01.188Z,3.40
2019-03-08T06:42:02.937Z,2.77
2019-03-08T06:47:04.565Z,1.80
2019-03-08T06:52:06.116Z,2.40
2019-03-08T06:57:07.669Z,2.73
2019-03-08T07:02:09.923Z,2.30
2019-03-08T07:07:11.476Z,2.80
2019-03-08T07:12:13.131Z,2.20
2019-03-08T07:17:14.741Z,2.27
2019-03-08T07:22:18.292Z,2.63
2019-03-08T07:27:24.389Z,2.33
2019-03-08T07:32:27.847Z,2.47
2019-03-08T07:37:43.449Z,2.43
2019-03-08T07:42:49.711Z,2.87
2019-03-08T07:48:08.374Z,2.17
2019-03-08T07:53:17.751Z,2.17
2019-03-08T07:58:23.835Z,1.80
2019-03-08T08:03:28.050Z,2.57
2019-03-08T08:08:37.582Z,1.63
2019-03-08T08:13:39.343Z,1.80
2019-03-08T08:18:59.616Z,2.07
2019-03-08T08:24:05.937Z,1.90
2019-03-08T08:29:09.494Z,1.93
2019-03-08T08:34:12.947Z,1.50
2019-03-08T08:39:25.517Z,1.60
2019-03-08T08:44:35.525Z,1.47
2019-03-08T08:49:56.247Z,2.03
2019-03-08T08:55:16.732Z,1.53
2019-03-08T09:00:30.955Z,2.00
2019-03-08T09:05:34.507Z,2.10
2019-03-08T09:10:37.962Z,2.03
2019-03-08T09:15:41.496Z,1.60
2019-03-08T09:20:51.066Z,1.27
2019-03-08T09:26:09.563Z,1.33
2019-03-08T09:31:25.210Z,2.07
2019-03-08T09:36:34.371Z,2.13
2019-03-08T09:41:50.528Z,1.70
2019-03-08T09:46:57.064Z,1.73
2019-03-08T09:52:00.623Z,11.77
2019-03-08T09:57:09.581Z,1.93
2019-03-08T10:02:11.147Z,2.70
2019-03-08T10:07:21.871Z,2.30
2019-03-08T10:12:37.412Z,2.30
2019-03-08T10:17:40.925Z,2.87
2019-03-08T10:22:45.409Z,1.90
2019-03-08T10:27:54.739Z,2.23
2019-03-08T10:33:13.352Z,1.90
2019-03-08T10:38:22.721Z,1.73
2019-03-08T10:43:41.294Z,2.43
2019-03-08T10:48:47.935Z,1.57
2019-03-08T10:54:00.620Z,1.50
2019-03-08T10:59:03.485Z,1.57
2019-03-08T11:04:09.986Z,1.83
2019-03-08T11:09:22.048Z,1.17
2019-03-08T11:14:28.433Z,1.47
2019-03-08T11:19:31.947Z,1.63
2019-03-08T11:24:33.516Z,1.30
2019-03-08T11:29:52.459Z,1.57
2019-03-08T11:34:54.328Z,1.50
2019-03-08T11:40:07.813Z,1.40
2019-03-08T11:45:17.869Z,1.30
2019-03-08T11:50:27.079Z,1.50
2019-03-08T11:55:34.734Z,1.40
2019-03-08T12:00:42.042Z,1.23
2019-03-08T12:06:02.293Z,0.90
2019-03-08T12:11:13.410Z,1.20
2019-03-08T12:16:22.900Z,1.20
2019-03-08T12:21:29.449Z,1.10
2019-03-08T12:26:49.331Z,1.33
2019-03-08T12:32:09.665Z,1.60
2019-03-08T12:37:13.142Z,1.57
2019-03-08T12:42:14.889Z,1.03
2019-03-08T12:47:27.140Z,1.00
2019-03-08T12:52:37.737Z,1.10
2019-03-08T12:57:53.201Z,1.13
2019-03-08T13:03:00.424Z,0.80
2019-03-08T13:08:04.828Z,1.10
2019-03-08T13:13:06.381Z,1.50
2019-03-08T13:18:07.931Z,0.80
2019-03-08T13:23:09.479Z,2.00
2019-03-08T13:28:11.032Z,1.70
2019-03-08T13:33:12.696Z,2.33
2019-03-08T13:38:14.316Z,2.20
2019-03-08T13:43:15.917Z,1.97
2019-03-08T13:48:17.471Z,1.87
2019-03-08T13:53:19.101Z,1.77
2019-03-08T13:58:20.666Z,1.80
2019-03-08T14:03:22.405Z,1.97
2019-03-08T14:08:24.007Z,1.50
2019-03-08T14:13:25.663Z,1.17
2019-03-08T14:18:27.226Z,1.93
2019-03-08T14:23:28.812Z,1.20
2019-03-08T14:28:30.377Z,1.97
2019-03-08T14:33:34.364Z,1.33
2019-03-08T14:38:36.880Z,1.60
2019-03-08T14:43:43.079Z,2.17
2019-03-08T14:48:46.410Z,2.20
2019-03-08T14:53:48.545Z,2.00
2019-03-08T14:58:50.110Z,2.53
2019-03-08T15:03:51.665Z,3.50
2019-03-08T15:08:55.072Z,3.00
2019-03-08T15:13:58.064Z,3.07
2019-03-08T15:19:03.740Z,2.47
2019-03-08T15:24:04.596Z,3.37
2019-03-08T15:29:06.166Z,3.57
2019-03-08T15:34:07.735Z,2.90
2019-03-08T15:39:09.281Z,3.73
2019-03-08T15:44:11.209Z,5.30
2019-03-08T15:49:12.963Z,4.80
2019-03-08T15:54:14.582Z,5.17
2019-03-08T15:59:16.248Z,4.13
2019-03-08T16:04:19.045Z,2.97
2019-03-08T16:09:21.800Z,3.03
2019-03-08T16:14:23.493Z,3.20
2019-03-08T16:19:26.208Z,3.30
2019-03-08T16:24:31.218Z,4.30
2019-03-08T16:29:31.267Z,5.37
2019-03-08T16:34:33.131Z,4.27
2019-03-08T16:39:42.265Z,5.00
2019-03-08T16:44:53.580Z,8.50
2019-03-08T16:50:01.842Z,9.37
2019-03-08T16:55:12.741Z,11.80
2019-03-08T17:00:22.235Z,14.13
2019-03-08T17:05:29.457Z,13.97
2019-03-08T17:10:35.224Z,15.43
2019-03-08T17:15:41.534Z,12.17
2019-03-08T17:20:48.763Z,10.37
2019-03-08T17:25:53.400Z,11.57
2019-03-08T17:31:04.056Z,13.60
2019-03-08T17:36:24.237Z,16.77
2019-03-08T17:41:25.788Z,17.63
2019-03-08T17:46:29.304Z,21.70
2019-03-08T17:51:49.512Z,19.83
2019-03-08T17:56:58.751Z,20.03
2019-03-08T18:02:06.745Z,26.63
2019-03-08T18:07:12.107Z,25.37
2019-03-08T18:12:19.767Z,36.50
2019-03-08T18:17:26.253Z,36.93
2019-03-08T18:22:47.731Z,28.57
2019-03-08T18:28:00.066Z,25.50
2019-03-08T18:33:03.572Z,24.17
2019-03-08T18:38:25.414Z,20.00
2019-03-08T18:43:28.970Z,15.03
2019-03-08T18:48:49.212Z,23.93
2019-03-08T18:53:50.982Z,12.87
2019-03-08T18:58:54.552Z,17.20
2019-03-08T19:04:08.832Z,18.07
2019-03-08T19:09:15.396Z,11.83
2019-03-08T19:14:18.910Z,15.03
2019-03-08T19:19:20.587Z,11.70
2019-03-08T19:24:30.297Z,10.50
2019-03-08T19:29:48.692Z,8.80
2019-03-08T19:34:58.126Z,11.30
2019-03-08T19:40:14.609Z,10.53
2019-03-08T19:45:36.344Z,8.90
2019-03-08T19:50:49.000Z,7.83
2019-03-08T19:55:59.656Z,9.17
2019-03-08T20:01:03.201Z,9.87
2019-03-08T20:06:07.857Z,8.53
2019-03-08T20:11:29.854Z,8.80
2019-03-08T20:22:19.092Z,9.83
2019-03-08T20:28:17.735Z,9.67
2019-03-08T20:33:54.065Z,8.20
2019-03-08T20:39:11.389Z,7.87
2019-03-08T20:44:13.446Z,8.33
2019-03-08T20:55:00.963Z,6.10
2019-03-08T21:00:10.995Z,5.70
2019-03-08T21:05:14.310Z,5.70
2019-03-08T21:10:16.116Z,6.00
2019-03-08T21:15:25.009Z,5.33
2019-03-08T21:20:21.728Z,5.13
2019-03-08T21:25:23.337Z,6.97
2019-03-08T21:30:25.083Z,6.53
2019-03-08T21:35:26.859Z,6.10
2019-03-08T21:40:28.553Z,5.93
2019-03-08T21:45:30.310Z,7.60
2019-03-08T21:50:32.337Z,8.33
2019-03-08T21:55:33.896Z,6.63
2019-03-08T22:00:36.451Z,6.50
2019-03-08T22:05:40.057Z,9.23
2019-03-08T22:10:43.848Z,10.23
2019-03-08T22:15:45.560Z,6.67
2019-03-08T22:20:47.118Z,6.67
2019-03-08T22:25:48.686Z,13.73
2019-03-08T22:30:50.238Z,6.20
2019-03-08T22:35:52.101Z,4.67
2019-03-08T22:40:53.655Z,8.17
2019-03-08T22:45:55.290Z,6.03
2019-03-08T22:50:56.897Z,6.53
2019-03-08T22:55:58.561Z,5.03
2019-03-08T23:01:09.408Z,13.90
2019-03-08T23:06:13.017Z,11.50
2019-03-08T23:11:14.673Z,7.87
2019-03-08T23:16:16.265Z,5.13
2019-03-08T23:21:17.868Z,8.30
2019-03-08T23:26:19.420Z,9.90
2019-03-08T23:31:32.089Z,11.80
2019-03-08T23:36:33.648Z,12.17
2019-03-08T23:41:35.619Z,13.90
2019-03-08T23:46:37.171Z,44.93
2019-03-08T23:51:38.815Z,14.10
2019-03-08T23:56:40.362Z,15.83
